Terminal Aerodrome Forecast
Issued by NWS Los Angeles, CA

Home | Current Version | Previous Version | Text Only | Print | Product List | Glossary On
Versions: 1 2 3 4 5 6 7 8 9 10 11 12 13 14 15 16 17 18 19
000
FTUS46 KLOX 250500
TAFSMX
TAF
KSMX 250525Z 2506/2606 VRB03KT P6SM BKN015
     FM251000 VRB03KT P6SM BKN008 OVC015
     FM251500 VRB03KT 6SM BR VCSH BKN007 BKN015
     FM251700 18005KT P6SM BKN010 BKN150
     FM252100 26012KT P6SM SCT050 BKN150
     FM260300 VRB03KT P6SM BKN015=

USA.gov is the U.S. government's official web portal to all federal, state and local government web resources and services.